sensor_id;sensor_type;location;lat;lon;timestamp;P1;durP1;ratioP1;P2;durP2;ratioP2
13311;SDS011;34033;48.672;9.376;2024-02-21T00:00:33;2.70;;;2.27;;
13311;SDS011;34033;48.672;9.376;2024-02-21T00:02:58;2.20;;;2.00;;
13311;SDS011;34033;48.672;9.376;2024-02-21T00:05:27;2.47;;;2.27;;
13311;SDS011;34033;48.672;9.376;2024-02-21T00:07:52;4.60;;;2.20;;
13311;SDS011;34033;48.672;9.376;2024-02-21T00:10:17;2.90;;;2.37;;
13311;SDS011;34033;48.672;9.376;2024-02-21T00:12:43;2.47;;;1.90;;
13311;SDS011;34033;48.672;9.376;2024-02-21T00:15:08;3.33;;;2.27;;
13311;SDS011;34033;48.672;9.376;2024-02-21T00:17:34;3.43;;;2.67;;
13311;SDS011;34033;48.672;9.376;2024-02-21T00:19:59;3.13;;;2.17;;
13311;SDS011;34033;48.672;9.376;2024-02-21T00:22:24;8.37;;;2.43;;
13311;SDS011;34033;48.672;9.376;2024-02-21T00:24:53;3.47;;;2.27;;
13311;SDS011;34033;48.672;9.376;2024-02-21T00:27:18;6.00;;;2.43;;
13311;SDS011;34033;48.672;9.376;2024-02-21T00:29:43;5.23;;;2.60;;
13311;SDS011;34033;48.672;9.376;2024-02-21T00:32:09;2.87;;;2.33;;
13311;SDS011;34033;48.672;9.376;2024-02-21T00:34:34;2.10;;;1.90;;
13311;SDS011;34033;48.672;9.376;2024-02-21T00:37:00;4.30;;;2.53;;
13311;SDS011;34033;48.672;9.376;2024-02-21T00:39:26;3.03;;;2.30;;
13311;SDS011;34033;48.672;9.376;2024-02-21T00:41:51;2.80;;;2.03;;
13311;SDS011;34033;48.672;9.376;2024-02-21T00:44:16;3.50;;;2.23;;
13311;SDS011;34033;48.672;9.376;2024-02-21T00:46:42;3.53;;;1.97;;
13311;SDS011;34033;48.672;9.376;2024-02-21T00:49:07;5.03;;;2.13;;
13311;SDS011;34033;48.672;9.376;2024-02-21T00:51:32;2.37;;;2.10;;
13311;SDS011;34033;48.672;9.376;2024-02-21T00:53:58;3.23;;;2.00;;
13311;SDS011;34033;48.672;9.376;2024-02-21T00:56:23;2.30;;;1.67;;
13311;SDS011;34033;48.672;9.376;2024-02-21T00:58:48;2.00;;;1.83;;
13311;SDS011;34033;48.672;9.376;2024-02-21T01:01:20;4.40;;;2.27;;
13311;SDS011;34033;48.672;9.376;2024-02-21T01:03:47;2.23;;;1.93;;
13311;SDS011;34033;48.672;9.376;2024-02-21T01:06:12;2.43;;;1.80;;
13311;SDS011;34033;48.672;9.376;2024-02-21T01:08:38;2.10;;;1.83;;
13311;SDS011;34033;48.672;9.376;2024-02-21T01:11:03;3.13;;;2.03;;
13311;SDS011;34033;48.672;9.376;2024-02-21T01:13:28;2.63;;;2.00;;
13311;SDS011;34033;48.672;9.376;2024-02-21T01:15:54;1.70;;;1.60;;
13311;SDS011;34033;48.672;9.376;2024-02-21T01:18:19;2.87;;;1.90;;
13311;SDS011;34033;48.672;9.376;2024-02-21T01:20:44;2.00;;;1.80;;
13311;SDS011;34033;48.672;9.376;2024-02-21T01:23:10;2.13;;;1.57;;
13311;SDS011;34033;48.672;9.376;2024-02-21T01:25:35;2.03;;;1.77;;
13311;SDS011;34033;48.672;9.376;2024-02-21T01:28:00;1.63;;;1.53;;
13311;SDS011;34033;48.672;9.376;2024-02-21T01:30:26;2.60;;;1.70;;
13311;SDS011;34033;48.672;9.376;2024-02-21T01:32:51;3.40;;;1.97;;
13311;SDS011;34033;48.672;9.376;2024-02-21T01:35:16;2.97;;;1.97;;
13311;SDS011;34033;48.672;9.376;2024-02-21T01:37:43;3.43;;;1.97;;
13311;SDS011;34033;48.672;9.376;2024-02-21T01:40:08;1.97;;;1.57;;
13311;SDS011;34033;48.672;9.376;2024-02-21T01:42:37;1.90;;;1.60;;
13311;SDS011;34033;48.672;9.376;2024-02-21T01:45:04;1.80;;;1.70;;
13311;SDS011;34033;48.672;9.376;2024-02-21T01:47:30;1.63;;;1.53;;
13311;SDS011;34033;48.672;9.376;2024-02-21T01:49:55;3.97;;;2.20;;
13311;SDS011;34033;48.672;9.376;2024-02-21T01:52:21;1.77;;;1.40;;
13311;SDS011;34033;48.672;9.376;2024-02-21T01:54:46;2.13;;;1.30;;
13311;SDS011;34033;48.672;9.376;2024-02-21T01:57:12;3.23;;;2.00;;
13311;SDS011;34033;48.672;9.376;2024-02-21T01:59:38;3.53;;;1.80;;
13311;SDS011;34033;48.672;9.376;2024-02-21T02:02:03;1.53;;;1.40;;
13311;SDS011;34033;48.672;9.376;2024-02-21T02:04:29;2.33;;;1.67;;
13311;SDS011;34033;48.672;9.376;2024-02-21T02:06:55;2.37;;;1.67;;
13311;SDS011;34033;48.672;9.376;2024-02-21T02:09:20;2.07;;;1.50;;
13311;SDS011;34033;48.672;9.376;2024-02-21T02:11:46;1.50;;;1.40;;
13311;SDS011;34033;48.672;9.376;2024-02-21T02:14:11;1.40;;;1.30;;
13311;SDS011;34033;48.672;9.376;2024-02-21T02:16:37;2.43;;;1.90;;
13311;SDS011;34033;48.672;9.376;2024-02-21T02:19:02;1.47;;;1.37;;
13311;SDS011;34033;48.672;9.376;2024-02-21T02:21:32;1.70;;;1.33;;
13311;SDS011;34033;48.672;9.376;2024-02-21T02:24:02;1.57;;;1.37;;
13311;SDS011;34033;48.672;9.376;2024-02-21T02:26:28;1.40;;;1.30;;
13311;SDS011;34033;48.672;9.376;2024-02-21T02:28:53;1.77;;;1.63;;
13311;SDS011;34033;48.672;9.376;2024-02-21T02:31:18;2.37;;;1.50;;
13311;SDS011;34033;48.672;9.376;2024-02-21T02:33:44;1.53;;;1.20;;
13311;SDS011;34033;48.672;9.376;2024-02-21T02:36:09;1.60;;;1.40;;
13311;SDS011;34033;48.672;9.376;2024-02-21T02:38:35;2.00;;;1.33;;
13311;SDS011;34033;48.672;9.376;2024-02-21T02:41:00;1.30;;;1.20;;
13311;SDS011;34033;48.672;9.376;2024-02-21T02:43:25;1.47;;;1.23;;
13311;SDS011;34033;48.672;9.376;2024-02-21T02:45:51;3.60;;;1.40;;
13311;SDS011;34033;48.672;9.376;2024-02-21T02:48:16;1.53;;;1.43;;
13311;SDS011;34033;48.672;9.376;2024-02-21T02:50:42;2.53;;;1.50;;
13311;SDS011;34033;48.672;9.376;2024-02-21T02:53:07;1.60;;;1.50;;
13311;SDS011;34033;48.672;9.376;2024-02-21T02:55:32;2.53;;;1.50;;
13311;SDS011;34033;48.672;9.376;2024-02-21T02:57:58;2.63;;;1.90;;
13311;SDS011;34033;48.672;9.376;2024-02-21T03:00:23;2.07;;;1.60;;
13311;SDS011;34033;48.672;9.376;2024-02-21T03:02:49;1.40;;;1.30;;
13311;SDS011;34033;48.672;9.376;2024-02-21T03:05:15;2.80;;;1.47;;
13311;SDS011;34033;48.672;9.376;2024-02-21T03:07:42;3.33;;;1.60;;
13311;SDS011;34033;48.672;9.376;2024-02-21T03:10:09;1.57;;;1.47;;
13311;SDS011;34033;48.672;9.376;2024-02-21T03:12:34;1.80;;;1.30;;
13311;SDS011;34033;48.672;9.376;2024-02-21T03:15:00;1.97;;;1.40;;
13311;SDS011;34033;48.672;9.376;2024-02-21T03:17:25;1.37;;;1.20;;
13311;SDS011;34033;48.672;9.376;2024-02-21T03:19:53;1.57;;;1.00;;
13311;SDS011;34033;48.672;9.376;2024-02-21T03:22:20;1.50;;;1.40;;
13311;SDS011;34033;48.672;9.376;2024-02-21T03:24:46;3.40;;;1.63;;
13311;SDS011;34033;48.672;9.376;2024-02-21T03:27:11;1.93;;;1.40;;
13311;SDS011;34033;48.672;9.376;2024-02-21T03:29:36;1.87;;;1.60;;
13311;SDS011;34033;48.672;9.376;2024-02-21T03:32:02;1.87;;;1.40;;
13311;SDS011;34033;48.672;9.376;2024-02-21T03:34:27;2.10;;;1.43;;
13311;SDS011;34033;48.672;9.376;2024-02-21T03:36:52;1.60;;;1.33;;
13311;SDS011;34033;48.672;9.376;2024-02-21T03:39:18;1.50;;;1.40;;
13311;SDS011;34033;48.672;9.376;2024-02-21T03:41:43;3.07;;;1.50;;
13311;SDS011;34033;48.672;9.376;2024-02-21T03:44:08;2.07;;;1.43;;
13311;SDS011;34033;48.672;9.376;2024-02-21T03:46:34;1.50;;;1.40;;
13311;SDS011;34033;48.672;9.376;2024-02-21T03:48:59;3.67;;;1.37;;
13311;SDS011;34033;48.672;9.376;2024-02-21T03:51:25;1.63;;;1.20;;
13311;SDS011;34033;48.672;9.376;2024-02-21T03:53:51;1.23;;;1.23;;
13311;SDS011;34033;48.672;9.376;2024-02-21T03:56:16;2.10;;;1.50;;
13311;SDS011;34033;48.672;9.376;2024-02-21T03:58:41;1.90;;;1.17;;
13311;SDS011;34033;48.672;9.376;2024-02-21T04:01:07;1.33;;;1.23;;
13311;SDS011;34033;48.672;9.376;2024-02-21T04:03:32;1.63;;;1.53;;
13311;SDS011;34033;48.672;9.376;2024-02-21T04:05:57;6.30;;;1.50;;
13311;SDS011;34033;48.672;9.376;2024-02-21T04:08:23;1.80;;;1.40;;
13311;SDS011;34033;48.672;9.376;2024-02-21T04:10:48;1.77;;;1.57;;
13311;SDS011;34033;48.672;9.376;2024-02-21T04:13:14;1.50;;;1.40;;
13311;SDS011;34033;48.672;9.376;2024-02-21T04:15:39;2.53;;;1.60;;
13311;SDS011;34033;48.672;9.376;2024-02-21T04:18:04;1.83;;;1.63;;
13311;SDS011;34033;48.672;9.376;2024-02-21T04:20:30;1.73;;;1.40;;
13311;SDS011;34033;48.672;9.376;2024-02-21T04:22:55;1.97;;;1.83;;
13311;SDS011;34033;48.672;9.376;2024-02-21T04:25:21;1.50;;;1.40;;
13311;SDS011;34033;48.672;9.376;2024-02-21T04:27:46;1.60;;;1.50;;
13311;SDS011;34033;48.672;9.376;2024-02-21T04:30:12;1.83;;;1.50;;
13311;SDS011;34033;48.672;9.376;2024-02-21T04:32:37;1.70;;;1.57;;
13311;SDS011;34033;48.672;9.376;2024-02-21T04:35:03;2.53;;;1.67;;
13311;SDS011;34033;48.672;9.376;2024-02-21T04:37:29;2.00;;;1.50;;
13311;SDS011;34033;48.672;9.376;2024-02-21T04:39:54;1.57;;;1.47;;
13311;SDS011;34033;48.672;9.376;2024-02-21T04:42:19;2.77;;;1.67;;
13311;SDS011;34033;48.672;9.376;2024-02-21T04:44:45;1.73;;;1.63;;
13311;SDS011;34033;48.672;9.376;2024-02-21T04:47:10;1.53;;;1.47;;
13311;SDS011;34033;48.672;9.376;2024-02-21T04:49:35;2.77;;;1.70;;
13311;SDS011;34033;48.672;9.376;2024-02-21T04:52:01;2.37;;;1.57;;
13311;SDS011;34033;48.672;9.376;2024-02-21T04:54:26;2.70;;;1.90;;
13311;SDS011;34033;48.672;9.376;2024-02-21T04:56:52;1.43;;;1.33;;
13311;SDS011;34033;48.672;9.376;2024-02-21T04:59:17;2.20;;;1.40;;
13311;SDS011;34033;48.672;9.376;2024-02-21T05:01:43;1.87;;;1.63;;
13311;SDS011;34033;48.672;9.376;2024-02-21T05:04:08;1.40;;;1.30;;
13311;SDS011;34033;48.672;9.376;2024-02-21T05:06:40;2.47;;;1.80;;
13311;SDS011;34033;48.672;9.376;2024-02-21T05:09:09;2.90;;;1.73;;
13311;SDS011;34033;48.672;9.376;2024-02-21T05:11:35;1.93;;;1.80;;
13311;SDS011;34033;48.672;9.376;2024-02-21T05:14:01;5.67;;;1.73;;
13311;SDS011;34033;48.672;9.376;2024-02-21T05:16:26;1.90;;;1.80;;
13311;SDS011;34033;48.672;9.376;2024-02-21T05:18:51;2.20;;;1.80;;
13311;SDS011;34033;48.672;9.376;2024-02-21T05:21:17;2.47;;;1.63;;
13311;SDS011;34033;48.672;9.376;2024-02-21T05:23:42;1.63;;;1.53;;
13311;SDS011;34033;48.672;9.376;2024-02-21T05:26:09;1.97;;;1.57;;
13311;SDS011;34033;48.672;9.376;2024-02-21T05:28:34;1.90;;;1.60;;
13311;SDS011;34033;48.672;9.376;2024-02-21T05:30:59;1.97;;;1.73;;
13311;SDS011;34033;48.672;9.376;2024-02-21T05:33:25;1.63;;;1.40;;
13311;SDS011;34033;48.672;9.376;2024-02-21T05:35:51;2.13;;;1.80;;
13311;SDS011;34033;48.672;9.376;2024-02-21T05:38:16;2.40;;;1.70;;
13311;SDS011;34033;48.672;9.376;2024-02-21T05:40:42;4.10;;;1.87;;
13311;SDS011;34033;48.672;9.376;2024-02-21T05:43:09;1.83;;;1.73;;
13311;SDS011;34033;48.672;9.376;2024-02-21T05:45:35;2.43;;;2.07;;
13311;SDS011;34033;48.672;9.376;2024-02-21T05:48:02;2.00;;;1.80;;
13311;SDS011;34033;48.672;9.376;2024-02-21T05:50:28;2.00;;;1.70;;
13311;SDS011;34033;48.672;9.376;2024-02-21T05:52:54;1.70;;;1.60;;
13311;SDS011;34033;48.672;9.376;2024-02-21T05:55:20;2.17;;;1.70;;
13311;SDS011;34033;48.672;9.376;2024-02-21T05:57:46;1.70;;;1.60;;
13311;SDS011;34033;48.672;9.376;2024-02-21T06:00:11;2.10;;;1.43;;
13311;SDS011;34033;48.672;9.376;2024-02-21T06:02:37;1.77;;;1.60;;
13311;SDS011;34033;48.672;9.376;2024-02-21T06:05:02;2.30;;;1.90;;
13311;SDS011;34033;48.672;9.376;2024-02-21T06:07:30;2.07;;;1.83;;
13311;SDS011;34033;48.672;9.376;2024-02-21T06:09:55;1.47;;;1.37;;
13311;SDS011;34033;48.672;9.376;2024-02-21T06:12:20;3.17;;;2.27;;
13311;SDS011;34033;48.672;9.376;2024-02-21T06:14:46;3.07;;;2.00;;
13311;SDS011;34033;48.672;9.376;2024-02-21T06:17:11;4.90;;;2.43;;
13311;SDS011;34033;48.672;9.376;2024-02-21T06:19:39;3.47;;;2.50;;
13311;SDS011;34033;48.672;9.376;2024-02-21T06:22:05;4.53;;;3.03;;
13311;SDS011;34033;48.672;9.376;2024-02-21T06:24:33;3.00;;;2.20;;
13311;SDS011;34033;48.672;9.376;2024-02-21T06:26:58;2.57;;;2.23;;
13311;SDS011;34033;48.672;9.376;2024-02-21T06:29:24;2.33;;;2.00;;
13311;SDS011;34033;48.672;9.376;2024-02-21T06:31:49;3.80;;;2.37;;
13311;SDS011;34033;48.672;9.376;2024-02-21T06:34:14;2.13;;;1.93;;
13311;SDS011;34033;48.672;9.376;2024-02-21T06:36:40;2.37;;;1.90;;
13311;SDS011;34033;48.672;9.376;2024-02-21T06:39:05;2.30;;;1.70;;
13311;SDS011;34033;48.672;9.376;2024-02-21T06:41:32;3.17;;;2.50;;
13311;SDS011;34033;48.672;9.376;2024-02-21T06:43:59;5.83;;;3.03;;
13311;SDS011;34033;48.672;9.376;2024-02-21T06:46:25;4.50;;;2.70;;
13311;SDS011;34033;48.672;9.376;2024-02-21T06:48:51;3.47;;;3.03;;
13311;SDS011;34033;48.672;9.376;2024-02-21T06:51:16;7.57;;;4.37;;
13311;SDS011;34033;48.672;9.376;2024-02-21T06:53:42;7.30;;;3.73;;
13311;SDS011;34033;48.672;9.376;2024-02-21T06:56:09;5.60;;;4.00;;
13311;SDS011;34033;48.672;9.376;2024-02-21T06:58:35;6.23;;;4.00;;
13311;SDS011;34033;48.672;9.376;2024-02-21T07:01:00;6.17;;;4.17;;
13311;SDS011;34033;48.672;9.376;2024-02-21T07:03:26;3.83;;;2.70;;
13311;SDS011;34033;48.672;9.376;2024-02-21T07:05:52;3.30;;;2.43;;
13311;SDS011;34033;48.672;9.376;2024-02-21T07:08:17;4.97;;;2.47;;
13311;SDS011;34033;48.672;9.376;2024-02-21T07:10:42;2.67;;;1.80;;
13311;SDS011;34033;48.672;9.376;2024-02-21T07:13:08;2.93;;;2.13;;
13311;SDS011;34033;48.672;9.376;2024-02-21T07:15:33;2.13;;;1.80;;
13311;SDS011;34033;48.672;9.376;2024-02-21T07:17:58;2.37;;;1.80;;
13311;SDS011;34033;48.672;9.376;2024-02-21T07:20:24;2.23;;;1.90;;
13311;SDS011;34033;48.672;9.376;2024-02-21T07:22:50;1.60;;;1.50;;
13311;SDS011;34033;48.672;9.376;2024-02-21T07:25:15;2.50;;;1.90;;
13311;SDS011;34033;48.672;9.376;2024-02-21T07:27:40;1.93;;;1.73;;
13311;SDS011;34033;48.672;9.376;2024-02-21T07:30:07;3.17;;;1.87;;
13311;SDS011;34033;48.672;9.376;2024-02-21T07:32:32;2.87;;;1.60;;
13311;SDS011;34033;48.672;9.376;2024-02-21T07:34:57;1.73;;;1.60;;
13311;SDS011;34033;48.672;9.376;2024-02-21T07:37:23;4.27;;;2.57;;
13311;SDS011;34033;48.672;9.376;2024-02-21T07:39:48;7.60;;;2.23;;
13311;SDS011;34033;48.672;9.376;2024-02-21T07:42:13;3.50;;;1.97;;
13311;SDS011;34033;48.672;9.376;2024-02-21T07:44:40;3.10;;;1.87;;
13311;SDS011;34033;48.672;9.376;2024-02-21T07:47:06;2.97;;;1.77;;
13311;SDS011;34033;48.672;9.376;2024-02-21T07:49:32;2.57;;;1.87;;
13311;SDS011;34033;48.672;9.376;2024-02-21T07:51:57;5.97;;;1.83;;
13311;SDS011;34033;48.672;9.376;2024-02-21T07:54:25;3.80;;;1.67;;
13311;SDS011;34033;48.672;9.376;2024-02-21T07:56:51;2.10;;;1.87;;
13311;SDS011;34033;48.672;9.376;2024-02-21T07:59:16;1.40;;;1.27;;
13311;SDS011;34033;48.672;9.376;2024-02-21T08:01:42;1.90;;;1.30;;
13311;SDS011;34033;48.672;9.376;2024-02-21T08:04:09;4.30;;;1.50;;
13311;SDS011;34033;48.672;9.376;2024-02-21T08:06:34;3.03;;;1.40;;
13311;SDS011;34033;48.672;9.376;2024-02-21T08:09:00;2.10;;;1.23;;
13311;SDS011;34033;48.672;9.376;2024-02-21T08:11:25;6.40;;;1.30;;
13311;SDS011;34033;48.672;9.376;2024-02-21T08:13:51;1.73;;;1.30;;
13311;SDS011;34033;48.672;9.376;2024-02-21T08:16:16;1.77;;;1.67;;
13311;SDS011;34033;48.672;9.376;2024-02-21T08:18:43;3.30;;;2.00;;
13311;SDS011;34033;48.672;9.376;2024-02-21T08:21:09;1.83;;;1.23;;
13311;SDS011;34033;48.672;9.376;2024-02-21T08:23:34;6.00;;;1.70;;
13311;SDS011;34033;48.672;9.376;2024-02-21T08:26:02;2.00;;;1.50;;
13311;SDS011;34033;48.672;9.376;2024-02-21T08:28:28;2.13;;;1.30;;
13311;SDS011;34033;48.672;9.376;2024-02-21T08:30:53;1.23;;;1.10;;
13311;SDS011;34033;48.672;9.376;2024-02-21T08:33:19;1.20;;;1.10;;
13311;SDS011;34033;48.672;9.376;2024-02-21T08:35:49;1.60;;;1.33;;
13311;SDS011;34033;48.672;9.376;2024-02-21T08:38:14;1.43;;;1.33;;
13311;SDS011;34033;48.672;9.376;2024-02-21T08:40:40;3.03;;;1.53;;
13311;SDS011;34033;48.672;9.376;2024-02-21T08:43:05;1.17;;;1.07;;
13311;SDS011;34033;48.672;9.376;2024-02-21T08:45:30;1.00;;;0.80;;
13311;SDS011;34033;48.672;9.376;2024-02-21T08:47:56;1.27;;;1.07;;
13311;SDS011;34033;48.672;9.376;2024-02-21T08:50:21;1.50;;;1.27;;
13311;SDS011;34033;48.672;9.376;2024-02-21T08:52:47;1.50;;;1.00;;
13311;SDS011;34033;48.672;9.376;2024-02-21T08:55:12;1.30;;;1.20;;
13311;SDS011;34033;48.672;9.376;2024-02-21T08:57:37;1.20;;;1.00;;
13311;SDS011;34033;48.672;9.376;2024-02-21T09:00:04;1.07;;;0.90;;
13311;SDS011;34033;48.672;9.376;2024-02-21T09:02:34;2.37;;;0.90;;
13311;SDS011;34033;48.672;9.376;2024-02-21T09:05:09;1.40;;;0.90;;
13311;SDS011;34033;48.672;9.376;2024-02-21T09:07:34;1.30;;;1.20;;
13311;SDS011;34033;48.672;9.376;2024-02-21T09:10:00;2.80;;;1.70;;
13311;SDS011;34033;48.672;9.376;2024-02-21T09:12:25;1.20;;;1.10;;
13311;SDS011;34033;48.672;9.376;2024-02-21T09:14:51;2.43;;;1.40;;
13311;SDS011;34033;48.672;9.376;2024-02-21T09:17:16;1.07;;;1.03;;
13311;SDS011;34033;48.672;9.376;2024-02-21T09:19:49;1.10;;;1.07;;
13311;SDS011;34033;48.672;9.376;2024-02-21T09:22:15;1.83;;;1.50;;
13311;SDS011;34033;48.672;9.376;2024-02-21T09:24:40;1.33;;;1.27;;
13311;SDS011;34033;48.672;9.376;2024-02-21T09:27:06;1.10;;;1.10;;
13311;SDS011;34033;48.672;9.376;2024-02-21T09:29:31;2.00;;;1.20;;
13311;SDS011;34033;48.672;9.376;2024-02-21T09:31:58;1.83;;;1.17;;
13311;SDS011;34033;48.672;9.376;2024-02-21T09:34:24;4.67;;;1.20;;
13311;SDS011;34033;48.672;9.376;2024-02-21T09:36:49;1.13;;;0.93;;
13311;SDS011;34033;48.672;9.376;2024-02-21T09:39:15;1.87;;;0.83;;
13311;SDS011;34033;48.672;9.376;2024-02-21T09:41:45;1.83;;;1.37;;
13311;SDS011;34033;48.672;9.376;2024-02-21T09:44:17;2.50;;;1.20;;
13311;SDS011;34033;48.672;9.376;2024-02-21T09:47:02;1.97;;;1.20;;
13311;SDS011;34033;48.672;9.376;2024-02-21T09:49:32;1.87;;;1.23;;
13311;SDS011;34033;48.672;9.376;2024-02-21T09:52:01;2.93;;;1.23;;
13311;SDS011;34033;48.672;9.376;2024-02-21T09:54:29;1.20;;;1.20;;
13311;SDS011;34033;48.672;9.376;2024-02-21T09:56:57;1.67;;;1.20;;
13311;SDS011;34033;48.672;9.376;2024-02-21T09:59:23;1.63;;;1.17;;
13311;SDS011;34033;48.672;9.376;2024-02-21T10:01:49;1.77;;;1.47;;
13311;SDS011;34033;48.672;9.376;2024-02-21T10:04:17;0.80;;;0.80;;
13311;SDS011;34033;48.672;9.376;2024-02-21T10:06:43;1.20;;;1.10;;
13311;SDS011;34033;48.672;9.376;2024-02-21T10:09:19;2.57;;;1.23;;
13311;SDS011;34033;48.672;9.376;2024-02-21T10:11:54;1.60;;;1.30;;
13311;SDS011;34033;48.672;9.376;2024-02-21T10:14:20;1.20;;;1.10;;
13311;SDS011;34033;48.672;9.376;2024-02-21T10:16:47;2.43;;;1.20;;
13311;SDS011;34033;48.672;9.376;2024-02-21T10:19:17;1.37;;;1.27;;
13311;SDS011;34033;48.672;9.376;2024-02-21T10:21:43;3.07;;;1.50;;
13311;SDS011;34033;48.672;9.376;2024-02-21T10:24:10;3.20;;;1.10;;
13311;SDS011;34033;48.672;9.376;2024-02-21T10:26:37;2.93;;;1.23;;
13311;SDS011;34033;48.672;9.376;2024-02-21T10:29:02;2.83;;;0.80;;
13311;SDS011;34033;48.672;9.376;2024-02-21T10:31:28;2.27;;;1.23;;
13311;SDS011;34033;48.672;9.376;2024-02-21T10:33:56;1.17;;;0.93;;
13311;SDS011;34033;48.672;9.376;2024-02-21T10:36:29;1.67;;;1.23;;
13311;SDS011;34033;48.672;9.376;2024-02-21T10:38:54;3.80;;;0.87;;
13311;SDS011;34033;48.672;9.376;2024-02-21T10:41:20;1.57;;;1.13;;
13311;SDS011;34033;48.672;9.376;2024-02-21T10:43:49;0.77;;;0.77;;
13311;SDS011;34033;48.672;9.376;2024-02-21T10:46:20;1.00;;;0.80;;
13311;SDS011;34033;48.672;9.376;2024-02-21T10:48:47;1.50;;;1.03;;
13311;SDS011;34033;48.672;9.376;2024-02-21T10:51:19;0.70;;;0.70;;
13311;SDS011;34033;48.672;9.376;2024-02-21T10:58:59;3.40;;;0.80;;
13311;SDS011;34033;48.672;9.376;2024-02-21T11:01:26;1.90;;;1.00;;
13311;SDS011;34033;48.672;9.376;2024-02-21T11:03:55;1.07;;;0.70;;
13311;SDS011;34033;48.672;9.376;2024-02-21T11:06:22;0.60;;;0.60;;
13311;SDS011;34033;48.672;9.376;2024-02-21T11:08:59;1.20;;;0.70;;
13311;SDS011;34033;48.672;9.376;2024-02-21T11:11:28;1.03;;;0.67;;
13311;SDS011;34033;48.672;9.376;2024-02-21T11:14:03;1.03;;;0.87;;
13311;SDS011;34033;48.672;9.376;2024-02-21T11:16:34;1.33;;;1.00;;
13311;SDS011;34033;48.672;9.376;2024-02-21T11:19:07;1.13;;;0.70;;
13311;SDS011;34033;48.672;9.376;2024-02-21T11:21:45;2.47;;;1.27;;
13311;SDS011;34033;48.672;9.376;2024-02-21T11:24:10;0.70;;;0.63;;
13311;SDS011;34033;48.672;9.376;2024-02-21T11:26:39;2.40;;;1.33;;
13311;SDS011;34033;48.672;9.376;2024-02-21T11:29:07;1.37;;;1.23;;
13311;SDS011;34033;48.672;9.376;2024-02-21T11:31:41;2.07;;;1.00;;
13311;SDS011;34033;48.672;9.376;2024-02-21T11:34:10;1.60;;;1.13;;
13311;SDS011;34033;48.672;9.376;2024-02-21T11:36:39;0.83;;;0.77;;
13311;SDS011;34033;48.672;9.376;2024-02-21T11:39:22;2.03;;;0.93;;
13311;SDS011;34033;48.672;9.376;2024-02-21T11:42:01;5.83;;;0.70;;
13311;SDS011;34033;48.672;9.376;2024-02-21T11:44:27;3.03;;;0.70;;
13311;SDS011;34033;48.672;9.376;2024-02-21T11:46:52;0.77;;;0.77;;
13311;SDS011;34033;48.672;9.376;2024-02-21T11:49:17;0.70;;;0.70;;
13311;SDS011;34033;48.672;9.376;2024-02-21T11:51:43;2.00;;;0.83;;
13311;SDS011;34033;48.672;9.376;2024-02-21T11:54:08;0.80;;;0.70;;
13311;SDS011;34033;48.672;9.376;2024-02-21T11:56:34;0.70;;;0.70;;
13311;SDS011;34033;48.672;9.376;2024-02-21T11:59:00;1.70;;;0.93;;
13311;SDS011;34033;48.672;9.376;2024-02-21T12:01:25;1.87;;;1.00;;
13311;SDS011;34033;48.672;9.376;2024-02-21T12:03:51;0.93;;;0.87;;
13311;SDS011;34033;48.672;9.376;2024-02-21T12:06:16;2.00;;;1.10;;
13311;SDS011;34033;48.672;9.376;2024-02-21T12:08:46;1.03;;;1.00;;
13311;SDS011;34033;48.672;9.376;2024-02-21T12:11:24;0.90;;;0.90;;
13311;SDS011;34033;48.672;9.376;2024-02-21T12:14:02;0.90;;;0.90;;
13311;SDS011;34033;48.672;9.376;2024-02-21T12:16:29;1.37;;;0.97;;
13311;SDS011;34033;48.672;9.376;2024-02-21T12:18:56;1.07;;;0.90;;
13311;SDS011;34033;48.672;9.376;2024-02-21T12:21:33;1.10;;;1.00;;
13311;SDS011;34033;48.672;9.376;2024-02-21T12:24:14;2.10;;;1.10;;
13311;SDS011;34033;48.672;9.376;2024-02-21T12:26:40;5.13;;;0.87;;
13311;SDS011;34033;48.672;9.376;2024-02-21T12:29:06;2.00;;;1.07;;
13311;SDS011;34033;48.672;9.376;2024-02-21T12:31:34;0.80;;;0.80;;
13311;SDS011;34033;48.672;9.376;2024-02-21T12:34:01;0.80;;;0.80;;
13311;SDS011;34033;48.672;9.376;2024-02-21T12:36:26;1.30;;;1.10;;
13311;SDS011;34033;48.672;9.376;2024-02-21T12:38:51;1.43;;;0.90;;
13311;SDS011;34033;48.672;9.376;2024-02-21T12:41:17;0.63;;;0.63;;
13311;SDS011;34033;48.672;9.376;2024-02-21T12:43:42;0.80;;;0.80;;
13311;SDS011;34033;48.672;9.376;2024-02-21T12:46:08;1.97;;;1.23;;
13311;SDS011;34033;48.672;9.376;2024-02-21T12:48:33;0.80;;;0.80;;
13311;SDS011;34033;48.672;9.376;2024-02-21T12:50:59;1.27;;;0.80;;
13311;SDS011;34033;48.672;9.376;2024-02-21T12:53:24;0.93;;;0.77;;
13311;SDS011;34033;48.672;9.376;2024-02-21T12:55:50;2.03;;;1.00;;
13311;SDS011;34033;48.672;9.376;2024-02-21T12:58:15;1.37;;;1.00;;
13311;SDS011;34033;48.672;9.376;2024-02-21T13:00:41;1.43;;;0.80;;
13311;SDS011;34033;48.672;9.376;2024-02-21T13:03:07;1.23;;;0.63;;
13311;SDS011;34033;48.672;9.376;2024-02-21T13:05:32;3.30;;;0.60;;
13311;SDS011;34033;48.672;9.376;2024-02-21T13:07:58;0.67;;;0.67;;
13311;SDS011;34033;48.672;9.376;2024-02-21T13:10:24;2.60;;;1.20;;
13311;SDS011;34033;48.672;9.376;2024-02-21T13:12:49;0.77;;;0.77;;
13311;SDS011;34033;48.672;9.376;2024-02-21T13:15:14;2.63;;;0.87;;
13311;SDS011;34033;48.672;9.376;2024-02-21T13:17:41;0.80;;;0.73;;
13311;SDS011;34033;48.672;9.376;2024-02-21T13:20:06;0.90;;;0.77;;
13311;SDS011;34033;48.672;9.376;2024-02-21T13:22:33;0.77;;;0.77;;
13311;SDS011;34033;48.672;9.376;2024-02-21T13:24:59;1.63;;;1.00;;
13311;SDS011;34033;48.672;9.376;2024-02-21T13:27:25;2.37;;;1.10;;
13311;SDS011;34033;48.672;9.376;2024-02-21T13:29:51;1.57;;;1.17;;
13311;SDS011;34033;48.672;9.376;2024-02-21T13:32:18;1.33;;;0.70;;
13311;SDS011;34033;48.672;9.376;2024-02-21T13:34:43;1.37;;;0.80;;
13311;SDS011;34033;48.672;9.376;2024-02-21T13:37:08;0.90;;;0.67;;
13311;SDS011;34033;48.672;9.376;2024-02-21T13:39:35;0.90;;;0.90;;
13311;SDS011;34033;48.672;9.376;2024-02-21T13:42:00;0.70;;;0.70;;
13311;SDS011;34033;48.672;9.376;2024-02-21T13:44:26;0.53;;;0.53;;
13311;SDS011;34033;48.672;9.376;2024-02-21T13:46:51;1.83;;;1.20;;
13311;SDS011;34033;48.672;9.376;2024-02-21T13:49:17;1.43;;;0.90;;
13311;SDS011;34033;48.672;9.376;2024-02-21T13:51:42;0.83;;;0.83;;
13311;SDS011;34033;48.672;9.376;2024-02-21T13:54:09;0.70;;;0.70;;
13311;SDS011;34033;48.672;9.376;2024-02-21T13:56:36;0.80;;;0.80;;
13311;SDS011;34033;48.672;9.376;2024-02-21T13:59:02;2.80;;;1.20;;
13311;SDS011;34033;48.672;9.376;2024-02-21T14:01:27;1.60;;;1.00;;
13311;SDS011;34033;48.672;9.376;2024-02-21T14:03:53;0.90;;;0.90;;
13311;SDS011;34033;48.672;9.376;2024-02-21T14:06:18;3.60;;;1.00;;
13311;SDS011;34033;48.672;9.376;2024-02-21T14:08:44;1.53;;;1.10;;
13311;SDS011;34033;48.672;9.376;2024-02-21T14:11:10;1.03;;;0.97;;
13311;SDS011;34033;48.672;9.376;2024-02-21T14:13:35;2.67;;;0.80;;
13311;SDS011;34033;48.672;9.376;2024-02-21T14:16:01;1.90;;;0.93;;
13311;SDS011;34033;48.672;9.376;2024-02-21T14:18:26;1.40;;;0.90;;
13311;SDS011;34033;48.672;9.376;2024-02-21T14:20:52;2.20;;;1.00;;
13311;SDS011;34033;48.672;9.376;2024-02-21T14:23:17;0.83;;;0.80;;
13311;SDS011;34033;48.672;9.376;2024-02-21T14:25:43;1.00;;;0.90;;
13311;SDS011;34033;48.672;9.376;2024-02-21T14:28:08;1.10;;;0.73;;
13311;SDS011;34033;48.672;9.376;2024-02-21T14:30:37;1.60;;;0.80;;
13311;SDS011;34033;48.672;9.376;2024-02-21T14:33:02;3.10;;;1.30;;
13311;SDS011;34033;48.672;9.376;2024-02-21T14:35:27;2.37;;;1.13;;
13311;SDS011;34033;48.672;9.376;2024-02-21T14:37:53;1.30;;;1.00;;
13311;SDS011;34033;48.672;9.376;2024-02-21T14:40:22;1.80;;;1.03;;
13311;SDS011;34033;48.672;9.376;2024-02-21T14:42:47;1.10;;;1.00;;
13311;SDS011;34033;48.672;9.376;2024-02-21T14:45:12;1.23;;;0.77;;
13311;SDS011;34033;48.672;9.376;2024-02-21T14:47:38;2.00;;;1.10;;